createdAt,value
2018-07-26T11:08:01.561Z,31.78
2018-07-26T11:09:01.542Z,33.54
2018-07-26T11:10:01.282Z,33.34
2018-07-26T11:11:01.537Z,33.34
2018-07-26T11:12:01.538Z,31.88
2018-07-26T11:13:01.289Z,32.07
2018-07-26T11:14:01.309Z,32.76
2018-07-26T11:15:01.665Z,32.46
2018-07-26T11:16:01.561Z,31.49
2018-07-26T11:17:01.312Z,32.17
2018-07-26T11:18:01.575Z,32.07
2018-07-26T11:19:01.749Z,32.86
2018-07-26T11:20:01.611Z,33.74
2018-07-26T11:21:01.368Z,32.86
2018-07-26T11:22:01.349Z,32.37
2018-07-26T11:23:03.223Z,32.39
2018-07-26T11:24:01.609Z,32.07
2018-07-26T11:25:01.360Z,31.01
2018-07-26T11:26:01.378Z,31
2018-07-26T11:27:01.441Z,33.46
2018-07-26T11:28:01.649Z,34.24
2018-07-26T11:29:01.674Z,32.39
2018-07-26T11:30:01.435Z,31.51
2018-07-26T11:31:01.671Z,31.01
2018-07-26T11:32:01.668Z,31.31
2018-07-26T11:33:01.673Z,36
2018-07-26T11:34:01.680Z,35.22
2018-07-26T11:35:01.703Z,34.55
2018-07-26T11:36:01.907Z,32.6
2018-07-26T11:37:01.708Z,32.6
2018-07-26T11:38:01.505Z,30.44
2018-07-26T11:39:01.464Z,31.32
2018-07-26T11:40:01.721Z,32.51
2018-07-26T11:41:01.551Z,32.42
2018-07-26T11:42:01.741Z,30.46
2018-07-26T11:43:01.509Z,29.79
2018-07-26T11:44:01.500Z,32.53
2018-07-26T11:45:01.770Z,30.37
2018-07-26T11:46:01.783Z,30.75
2018-07-26T11:47:01.791Z,31.04
2018-07-26T11:48:01.923Z,30.36
2018-07-26T11:49:01.533Z,32.51
2018-07-26T11:50:01.864Z,32.23
2018-07-26T11:51:01.812Z,31.45
2018-07-26T11:52:01.833Z,31.45
2018-07-26T11:53:01.831Z,30.49
2018-07-26T11:54:01.853Z,31.27
2018-07-26T11:55:01.581Z,32.14
2018-07-26T11:56:01.591Z,31.65
2018-07-26T11:57:02.012Z,32.61
2018-07-26T11:58:01.893Z,31.24
2018-07-26T11:59:01.873Z,30.46
2018-07-26T12:00:01.874Z,30.85
2018-07-26T12:01:01.882Z,30.74
2018-07-26T12:02:01.658Z,30.75
2018-07-26T12:03:01.932Z,30.94
2018-07-26T12:04:01.912Z,31.04
2018-07-26T12:05:01.917Z,31.93
2018-07-26T12:06:01.736Z,31.14
2018-07-26T12:07:01.672Z,36.92
2018-07-26T12:08:01.952Z,34.59
2018-07-26T12:09:01.691Z,33.82
2018-07-26T12:10:01.692Z,30.88
2018-07-26T12:11:02.030Z,30
2018-07-26T12:12:01.968Z,29.7
2018-07-26T12:13:02.007Z,33.43
2018-07-26T12:14:01.986Z,30.01
2018-07-26T12:15:02.014Z,29.82
2018-07-26T12:16:01.876Z,33.44
2018-07-26T12:17:02.017Z,34.92
2018-07-26T12:18:01.777Z,32.25
2018-07-26T12:19:01.773Z,32.45
2018-07-26T12:20:02.027Z,31.74
2018-07-26T12:21:02.084Z,31.14
2018-07-26T12:22:02.069Z,31.14
2018-07-26T12:23:01.821Z,31.93
2018-07-26T12:24:02.060Z,32.22
2018-07-26T12:25:01.809Z,33.29
2018-07-26T12:26:02.202Z,33.29
2018-07-26T12:27:02.161Z,30.36
2018-07-26T12:28:02.101Z,32.51
2018-07-26T12:29:02.107Z,30.55
2018-07-26T12:30:01.861Z,32.42
2018-07-26T12:31:02.208Z,31.24
2018-07-26T12:32:01.860Z,32.22
2018-07-26T12:33:02.132Z,30.55
2018-07-26T12:34:02.140Z,31.14
2018-07-26T12:35:02.137Z,30.55
2018-07-26T12:36:02.242Z,30.46
2018-07-26T12:37:02.164Z,30.37
2018-07-26T12:38:01.926Z,30.67
2018-07-26T12:39:01.920Z,30.37
2018-07-26T12:40:02.179Z,30.29
2018-07-26T12:41:01.970Z,30
2018-07-26T12:42:02.189Z,29.6
2018-07-26T12:43:01.942Z,29.21
2018-07-26T12:44:01.950Z,32.25
2018-07-26T12:45:01.974Z,29.02
2018-07-26T12:46:02.266Z,29.41
2018-07-26T12:47:02.238Z,30.39
2018-07-26T12:48:02.238Z,30.19
2018-07-26T12:49:01.988Z,29.98
2018-07-26T12:50:01.997Z,30.47
2018-07-26T12:51:02.355Z,30.46
2018-07-26T12:52:02.269Z,29.77
2018-07-26T12:53:02.021Z,29.87
2018-07-26T12:54:02.288Z,29.75
2018-07-26T12:55:02.317Z,30.54
2018-07-26T12:56:02.122Z,30.44
2018-07-26T12:57:02.333Z,30.64
2018-07-26T12:58:02.308Z,30.35
2018-07-26T12:59:02.324Z,31.44
2018-07-26T13:00:02.321Z,32.12
2018-07-26T13:01:02.435Z,29.58
2018-07-26T13:02:02.353Z,29.77
2018-07-26T13:03:02.362Z,29.38
2018-07-26T13:04:02.374Z,28.91
2018-07-26T13:05:02.120Z,28.81
2018-07-26T13:06:02.440Z,28.61
2018-07-26T13:07:02.436Z,28.41
2018-07-26T13:08:02.158Z,30.37
2018-07-26T13:09:02.416Z,29.2
2018-07-26T13:10:02.416Z,29
2018-07-26T13:11:02.418Z,28.92
2018-07-26T13:12:02.417Z,29
2018-07-26T13:13:02.442Z,31.06
2018-07-26T13:14:02.449Z,30.98
2018-07-26T13:15:02.487Z,29.8
2018-07-26T13:16:02.461Z,29.31
2018-07-26T13:17:02.461Z,28.63
2018-07-26T13:18:02.471Z,31.27
2018-07-26T13:19:02.482Z,28.53
2018-07-26T13:20:02.497Z,30
2018-07-26T13:21:02.550Z,30
2018-07-26T13:22:02.244Z,30.1
2018-07-26T13:23:02.514Z,29.02
2018-07-26T13:24:02.531Z,29.2
2018-07-26T13:25:02.279Z,30.36
2018-07-26T13:26:02.307Z,30.46
2018-07-26T13:27:02.542Z,30.07
2018-07-26T13:28:02.550Z,28.69
2018-07-26T13:29:02.289Z,28.59
2018-07-26T13:30:02.553Z,29.87
2018-07-26T13:31:02.558Z,29.28
2018-07-26T13:32:02.322Z,29.87
2018-07-26T13:33:02.582Z,29.18
2018-07-26T13:34:02.597Z,28.79
2018-07-26T13:35:02.614Z,29.08
2018-07-26T13:36:02.450Z,30.65
2018-07-26T13:37:02.362Z,30.36
2018-07-26T13:38:02.364Z,28.99
2018-07-26T13:39:02.631Z,28.99
2018-07-26T13:40:02.408Z,29.38
2018-07-26T13:41:02.749Z,29.77
2018-07-26T13:42:02.638Z,30.07
2018-07-26T13:43:02.635Z,28.79
2018-07-26T13:44:02.659Z,28.2
2018-07-26T13:45:02.427Z,28.81
2018-07-26T13:46:02.450Z,29.97
2018-07-26T13:47:02.691Z,30.55
2018-07-26T13:48:02.691Z,29.48
2018-07-26T13:49:02.686Z,28.97
2018-07-26T13:50:02.697Z,28.58
2018-07-26T13:51:02.510Z,28.69
2018-07-26T13:52:02.696Z,28.58
2018-07-26T13:53:02.716Z,31.83
2018-07-26T13:54:02.716Z,29.85
2018-07-26T13:55:02.476Z,29.95
2018-07-26T13:56:02.770Z,30.25
2018-07-26T13:57:02.477Z,29.36
2018-07-26T13:58:02.758Z,30.64
2018-07-26T13:59:02.747Z,29.84
2018-07-26T14:00:02.498Z,29.75
2018-07-26T14:01:02.619Z,30.52
2018-07-26T14:02:02.781Z,31.42
2018-07-26T14:03:02.783Z,30.64
2018-07-26T14:04:02.916Z,30.15
2018-07-26T14:05:02.531Z,28.69
2018-07-26T14:06:02.883Z,29.77
2018-07-26T14:07:02.796Z,27.91
2018-07-26T14:08:02.829Z,29.87
2018-07-26T14:09:02.807Z,28.69
2018-07-26T14:10:02.824Z,28.79
2018-07-26T14:11:02.867Z,26.83
2018-07-26T14:12:02.832Z,27.33
2018-07-26T14:13:02.845Z,28.59
2018-07-26T14:14:02.587Z,27.81
2018-07-26T14:15:02.860Z,28.71
2018-07-26T14:16:03.291Z,25.85
2018-07-26T14:17:02.882Z,28.01
2018-07-26T14:18:02.881Z,27.91
2018-07-26T14:19:02.888Z,27.33
2018-07-26T14:20:02.899Z,28.3
2018-07-26T14:21:02.960Z,27.03
2018-07-26T14:22:02.914Z,27.91
2018-07-26T14:23:02.651Z,28.01
2018-07-26T14:24:02.928Z,26.93
2018-07-26T14:25:02.921Z,28.99
2018-07-26T14:26:02.944Z,26.93
2018-07-26T14:27:02.930Z,26.55
2018-07-26T14:28:02.945Z,28.71
2018-07-26T14:29:02.688Z,26.83
2018-07-26T14:30:02.968Z,29.58
2018-07-26T14:31:03.041Z,27.81
2018-07-26T14:32:02.712Z,26.73
2018-07-26T14:33:02.982Z,28.69
2018-07-26T14:34:02.980Z,29.28
2018-07-26T14:35:03.016Z,28.01
2018-07-26T14:36:03.048Z,30.46
2018-07-26T14:37:03.029Z,28.41
2018-07-26T14:38:03.012Z,29.38
2018-07-26T14:39:03.024Z,28.2
2018-07-26T14:40:03.034Z,28.4
2018-07-26T14:41:03.055Z,30.07
2018-07-26T14:42:03.050Z,29.36
2018-07-26T14:43:02.793Z,28.88
2018-07-26T14:44:03.061Z,28.19
2018-07-26T14:45:03.277Z,27.21
2018-07-26T14:46:03.112Z,28.58
2018-07-26T14:47:03.082Z,28.68
2018-07-26T14:48:02.835Z,27.11
2018-07-26T14:49:03.092Z,28
2018-07-26T14:50:03.103Z,28.3
2018-07-26T14:51:03.174Z,27.9
2018-07-26T14:52:03.120Z,28.09
2018-07-26T14:53:03.120Z,28.78
2018-07-26T14:54:03.124Z,29.38
2018-07-26T14:55:03.178Z,28.68
2018-07-26T14:56:03.228Z,28.2
2018-07-26T14:57:02.891Z,28.09
2018-07-26T14:58:02.902Z,28.3
2018-07-26T14:59:02.942Z,27.72
2018-07-26T15:00:03.168Z,27.91
2018-07-26T15:01:03.402Z,28.4
2018-07-26T15:02:02.929Z,28.3
2018-07-26T15:03:03.189Z,29.87
2018-07-26T15:04:03.017Z,28.4
2018-07-26T15:05:03.209Z,28.02
2018-07-26T15:06:03.271Z,31.54
2018-07-26T15:07:02.962Z,29.1
2018-07-26T15:08:03.349Z,28.59
2018-07-26T15:09:03.227Z,28.5
2018-07-26T15:10:03.238Z,29.38
2018-07-26T15:11:03.319Z,28.01
2018-07-26T15:12:03.247Z,28.88
2018-07-26T15:13:03.252Z,27.11
2018-07-26T15:14:03.354Z,27.9
2018-07-26T15:15:03.021Z,25.94
2018-07-26T15:16:03.087Z,28.09
2018-07-26T15:17:03.026Z,26.72
2018-07-26T15:18:03.060Z,27.5
2018-07-26T15:19:03.301Z,27.31
2018-07-26T15:20:03.324Z,25.35
2018-07-26T15:21:03.059Z,25.66
2018-07-26T15:22:03.355Z,25.85
2018-07-26T15:23:03.356Z,28.01
2018-07-26T15:24:03.337Z,31.44
2018-07-26T15:25:03.085Z,31.94
2018-07-26T15:26:03.360Z,30.18
2018-07-26T15:27:03.361Z,30.47
2018-07-26T15:28:03.101Z,28.69
2018-07-26T15:29:03.110Z,29.08
2018-07-26T15:30:03.382Z,28.3
2018-07-26T15:31:03.481Z,29.07
2018-07-26T15:32:03.397Z,28.88
2018-07-26T15:33:03.399Z,26.43
2018-07-26T15:34:03.407Z,28
2018-07-26T15:35:03.423Z,29.85
2018-07-26T15:36:03.217Z,28
2018-07-26T15:37:03.423Z,28.19
2018-07-26T15:38:03.174Z,26.81
2018-07-26T15:39:03.184Z,26.61
2018-07-26T15:40:03.187Z,26.32
2018-07-26T15:41:03.456Z,25.93
2018-07-26T15:42:03.459Z,27.78
2018-07-26T15:43:03.489Z,27.8
2018-07-26T15:44:03.471Z,27.9
2018-07-26T15:45:03.485Z,28.58
2018-07-26T15:46:03.560Z,28.29
2018-07-26T15:47:03.651Z,31.32
2018-07-26T15:48:03.515Z,28.88
2018-07-26T15:49:03.517Z,30.25
2018-07-26T15:50:03.517Z,30.74
2018-07-26T15:51:03.654Z,28.29
2018-07-26T15:52:03.524Z,29.56
2018-07-26T15:53:03.537Z,29.75
2018-07-26T15:54:03.541Z,27.9
2018-07-26T15:55:03.320Z,30.44
2018-07-26T15:56:03.577Z,28.78
2018-07-26T15:57:03.568Z,30.44
2018-07-26T15:58:03.319Z,30.54
2018-07-26T15:59:03.324Z,30.74
2018-07-26T16:00:03.584Z,30.35
2018-07-26T16:01:03.646Z,28.78
2018-07-26T16:02:03.592Z,29.95
2018-07-26T16:03:03.600Z,28.58
2018-07-26T16:04:10.468Z,28.78
2018-07-26T16:05:03.616Z,28.88
2018-07-26T16:06:03.656Z,29.36
2018-07-26T16:07:03.644Z,29.27
2018-07-26T16:08:03.643Z,30.05
2018-07-26T16:09:03.655Z,29.46
2018-07-26T16:10:03.654Z,28.09
2018-07-26T16:11:03.423Z,28.97
2018-07-26T16:12:03.678Z,31.13
2018-07-26T16:13:03.681Z,31.71
2018-07-26T16:14:03.422Z,29.56
2018-07-26T16:15:03.684Z,31.13
2018-07-26T16:16:03.737Z,29.25
2018-07-26T16:17:03.439Z,28.86
2018-07-26T16:18:04.111Z,31.41
2018-07-26T16:19:03.727Z,30.33
2018-07-26T16:20:03.723Z,29.74
2018-07-26T16:21:03.521Z,32.39
2018-07-26T16:22:03.816Z,29.74
2018-07-26T16:23:03.740Z,29.45
2018-07-26T16:24:03.746Z,30.33
2018-07-26T16:25:03.490Z,30.13
2018-07-26T16:26:03.754Z,29.74
2018-07-26T16:27:03.515Z,29.06
2018-07-26T16:28:03.509Z,28.86
2018-07-26T16:29:03.573Z,27.88
2018-07-26T16:30:03.532Z,29.64
2018-07-26T16:31:03.866Z,30.02
2018-07-26T16:32:03.792Z,30.61
2018-07-26T16:33:03.823Z,33.07
2018-07-26T16:34:03.889Z,32.27
2018-07-26T16:35:03.818Z,30.9
2018-07-26T16:36:03.856Z,31.41
2018-07-26T16:37:03.600Z,30.91
2018-07-26T16:38:03.594Z,32.27
2018-07-26T16:39:03.854Z,32.37
2018-07-26T16:40:04.180Z,31.39
2018-07-26T16:41:03.939Z,31
2018-07-26T16:42:03.611Z,30.41
2018-07-26T16:43:03.616Z,30.41
2018-07-26T16:44:03.879Z,31
2018-07-26T16:45:03.879Z,31.68
2018-07-26T16:46:03.893Z,30.51
2018-07-26T16:47:03.652Z,31.29
2018-07-26T16:48:03.636Z,32.76
2018-07-26T16:49:03.649Z,31.39
2018-07-26T16:50:03.916Z,32.27
2018-07-26T16:51:04.021Z,32.17
2018-07-26T16:52:03.672Z,32.17
2018-07-26T16:53:03.669Z,32.37
2018-07-26T16:54:03.680Z,33.94
2018-07-26T16:55:04.381Z,33.25
2018-07-26T16:56:03.736Z,33.85
2018-07-26T16:57:03.954Z,32.48
2018-07-26T16:58:03.708Z,32.17
2018-07-26T16:59:03.732Z,31.98
2018-07-26T17:00:03.985Z,33.45
2018-07-26T17:01:03.742Z,32.66
2018-07-26T17:02:03.985Z,33.45
2018-07-26T17:03:03.991Z,32.76
2018-07-26T17:04:04.200Z,33.54
2018-07-26T17:05:03.752Z,32.37
2018-07-26T17:06:04.038Z,32.06
2018-07-26T17:07:03.766Z,30.59
2018-07-26T17:08:04.037Z,33.34
2018-07-26T17:09:03.779Z,33.64
2018-07-26T17:10:03.783Z,30.88
2018-07-26T17:11:03.860Z,32.35
2018-07-26T17:12:03.816Z,33.53
2018-07-26T17:13:04.060Z,35.09
2018-07-26T17:14:04.068Z,34.89
2018-07-26T17:15:03.818Z,33.53
2018-07-26T17:16:03.918Z,33.43
2018-07-26T17:17:03.832Z,33.92
2018-07-26T17:18:03.836Z,33.33
2018-07-26T17:19:04.202Z,32.53
2018-07-26T17:20:04.100Z,33.02
2018-07-26T17:21:03.937Z,32.34
2018-07-26T17:22:03.855Z,34.19
2018-07-26T17:23:03.873Z,34.78
2018-07-26T17:24:03.871Z,34.09
2018-07-26T17:25:04.149Z,34
2018-07-26T17:26:03.887Z,34.29
2018-07-26T17:27:03.890Z,36.83
2018-07-26T17:28:03.908Z,35.16
2018-07-26T17:29:03.921Z,35.64
2018-07-26T17:30:04.169Z,37.6
2018-07-26T17:31:04.265Z,37.21
2018-07-26T17:32:04.178Z,37.57
2018-07-26T17:33:04.187Z,35.63
2018-07-26T17:34:03.936Z,37.38
2018-07-26T17:35:04.246Z,37.48
2018-07-26T17:36:04.309Z,39.14
2018-07-26T17:37:03.960Z,38.94
2018-07-26T17:38:04.226Z,37.48
2018-07-26T17:39:03.971Z,35.61
2018-07-26T17:40:04.014Z,36.98
2018-07-26T17:41:04.241Z,34.73
2018-07-26T17:42:03.990Z,34.83
2018-07-26T17:43:03.999Z,34.94
2018-07-26T17:44:03.992Z,34.65
2018-07-26T17:45:04.435Z,35.72
2018-07-26T17:46:04.002Z,36.9
2018-07-26T17:47:04.009Z,34.65
2018-07-26T17:48:04.057Z,36.9
2018-07-26T17:49:04.022Z,34.36
2018-07-26T17:50:04.041Z,38.16
2018-07-26T17:51:04.428Z,37.38
2018-07-26T17:52:04.041Z,38.84
2018-07-26T17:53:04.062Z,39.33
2018-07-26T17:54:04.063Z,39.82
2018-07-26T17:55:04.062Z,42.93
2018-07-26T17:56:04.139Z,41.07
2018-07-26T17:57:04.350Z,39.12
2018-07-26T17:58:04.341Z,36.08
2018-07-26T17:59:04.358Z,40.17
2018-07-26T18:00:04.092Z,36.76
2018-07-26T18:01:04.173Z,36.18
2018-07-26T18:02:04.101Z,36.86
2018-07-26T18:03:04.370Z,39.2
2018-07-26T18:04:04.386Z,36.47
2018-07-26T18:05:04.129Z,37.45
2018-07-26T18:06:04.500Z,36.96
2018-07-26T18:07:04.389Z,35.1
2018-07-26T18:08:04.400Z,34.81
2018-07-26T18:09:04.402Z,36.37
2018-07-26T18:10:04.152Z,34.81
2018-07-26T18:11:04.509Z,34.61
2018-07-26T18:12:04.418Z,34.61
2018-07-26T18:13:04.168Z,35.1
2018-07-26T18:14:04.178Z,34.81
2018-07-26T18:15:04.177Z,37.63
2018-07-26T18:16:04.491Z,35.3
2018-07-26T18:17:04.195Z,39.29
2018-07-26T18:18:04.194Z,39.2
2018-07-26T18:19:04.462Z,42.32
2018-07-26T18:20:04.222Z,42.98
2018-07-26T18:21:04.223Z,41.42
2018-07-26T18:22:04.480Z,36.25
2018-07-26T18:23:04.224Z,38.01
2018-07-26T18:24:04.246Z,37.52
2018-07-26T18:25:04.234Z,40.72
2018-07-26T18:26:04.524Z,41.11
2018-07-26T18:27:04.299Z,42.57
2018-07-26T18:28:04.257Z,39.55
2018-07-26T18:29:04.516Z,39.36
2018-07-26T18:30:04.269Z,43.84
2018-07-26T18:31:04.355Z,41.09
2018-07-26T18:32:04.545Z,43.33
2018-07-26T18:33:04.282Z,40.11
2018-07-26T18:34:04.329Z,41.77
2018-07-26T18:35:04.296Z,42.94
2018-07-26T18:36:04.333Z,41.28
2018-07-26T18:37:04.598Z,41.19
2018-07-26T18:38:04.315Z,42.45
2018-07-26T18:39:04.309Z,38.75
2018-07-26T18:40:04.570Z,40.41
2018-07-26T18:41:04.375Z,37.19
2018-07-26T18:42:04.329Z,40.31
2018-07-26T18:43:04.334Z,41.09
2018-07-26T18:44:04.463Z,40.31
2018-07-26T18:45:04.612Z,40.89
2018-07-26T18:46:04.375Z,42.55
2018-07-26T18:47:04.611Z,43.23
2018-07-26T18:48:04.621Z,47.69
2018-07-26T18:49:04.620Z,42.91
2018-07-26T18:50:04.623Z,42.04
2018-07-26T18:51:04.368Z,42.6
2018-07-26T18:52:04.371Z,45.04
2018-07-26T18:53:04.632Z,44.45
2018-07-26T18:54:04.385Z,44.94
2018-07-26T18:55:04.394Z,45.81
2018-07-26T18:56:04.759Z,46.3
2018-07-26T18:57:04.659Z,46.96
2018-07-26T18:58:04.413Z,47.93
2018-07-26T18:59:04.666Z,44.92
2018-07-26T19:00:04.432Z,47.54
2018-07-26T19:01:04.712Z,46.96
2018-07-26T19:02:04.758Z,49
2018-07-26T19:03:04.442Z,48.32
2018-07-26T19:04:04.431Z,49.76
2018-07-26T19:05:04.722Z,51.01
2018-07-26T19:06:04.791Z,51.01
2018-07-26T19:07:04.475Z,53.06
2018-07-26T19:08:04.719Z,53.13
2018-07-26T19:09:04.479Z,52.94
2018-07-26T19:10:04.475Z,54.1
2018-07-26T19:11:04.676Z,52.55
2018-07-26T19:12:04.747Z,53.71
2018-07-26T19:13:04.726Z,54.27
2018-07-26T19:14:04.505Z,54.85
2018-07-26T19:15:04.492Z,54.17
2018-07-26T19:16:04.791Z,55.31
2018-07-26T19:17:04.836Z,55.31
2018-07-26T19:18:04.525Z,53.75
2018-07-26T19:19:04.781Z,52.3
2018-07-26T19:20:04.781Z,52.98
2018-07-26T19:21:04.540Z,54.05
2018-07-26T19:22:04.541Z,54.24
2018-07-26T19:23:04.793Z,56.18
2018-07-26T19:24:04.847Z,56.18
2018-07-26T19:25:04.540Z,57.93
2018-07-26T19:26:04.729Z,57.61
2018-07-26T19:27:04.565Z,57.8
2018-07-26T19:28:04.823Z,58.09
2018-07-26T19:29:04.576Z,57.32
2018-07-26T19:30:04.840Z,58.97
2018-07-26T19:31:04.661Z,59.45
2018-07-26T19:32:04.588Z,58.55
2018-07-26T19:33:04.581Z,57.68
2018-07-26T19:34:04.583Z,57.97
2018-07-26T19:35:04.606Z,58.36
2018-07-26T19:36:04.884Z,58.74
2018-07-26T19:37:04.594Z,60.97
2018-07-26T19:38:04.608Z,61.46
2018-07-26T19:39:04.865Z,61.72
2018-07-26T19:40:04.638Z,61.14
2018-07-26T19:41:04.652Z,60.65
2018-07-26T19:42:04.642Z,59.39
2018-07-26T19:43:04.892Z,59.1
2018-07-26T19:44:04.703Z,60.17
2018-07-26T19:45:04.939Z,61.24
2018-07-26T19:46:04.716Z,61.52
2018-07-26T19:47:04.643Z,61.43
2018-07-26T19:48:04.905Z,61.24
2018-07-26T19:49:04.908Z,60.65
2018-07-26T19:50:04.915Z,61.14
2018-07-26T19:51:05.031Z,60.24
2018-07-26T19:52:04.663Z,58.39
2018-07-26T19:53:04.925Z,56.94
2018-07-26T19:54:04.717Z,61.01
2018-07-26T19:55:04.678Z,61.3
2018-07-26T19:56:04.702Z,58.91
2018-07-26T19:57:04.682Z,61.52
2018-07-26T19:58:04.951Z,61.11
2018-07-26T19:59:04.952Z,61.4
2018-07-26T20:00:04.970Z,60.72
2018-07-26T20:01:04.712Z,61.79
2018-07-26T20:02:04.776Z,61.59
2018-07-26T20:03:04.785Z,61.79
2018-07-26T20:04:05.023Z,62.27
2018-07-26T20:05:04.976Z,63.34
2018-07-26T20:06:04.744Z,63.34
2018-07-26T20:07:04.976Z,62.46
2018-07-26T20:08:04.984Z,62.75
2018-07-26T20:09:05.042Z,63.04
2018-07-26T20:10:04.799Z,64.5
2018-07-26T20:11:05.169Z,64.4
2018-07-26T20:12:05.005Z,64.17
2018-07-26T20:13:04.752Z,64.4
2018-07-26T20:14:05.012Z,64.85
2018-07-26T20:15:05.016Z,65.92
2018-07-26T20:16:05.039Z,64.95
2018-07-26T20:17:04.767Z,62.14
2018-07-26T20:18:04.775Z,63.21
2018-07-26T20:19:04.792Z,64.27
2018-07-26T20:20:04.810Z,64.66
2018-07-26T20:21:05.080Z,64.37
2018-07-26T20:22:04.786Z,63.4
2018-07-26T20:23:04.790Z,62.92
2018-07-26T20:24:04.853Z,62.72
2018-07-26T20:25:05.053Z,62.24
2018-07-26T20:26:05.153Z,63.98
2018-07-26T20:27:05.077Z,63.69
2018-07-26T20:28:04.851Z,58.95
2018-07-26T20:29:04.817Z,56.72
2018-07-26T20:30:04.831Z,62.24
2018-07-26T20:31:04.885Z,64.17
2018-07-26T20:32:05.081Z,65.24
2018-07-26T20:33:05.204Z,66.2
2018-07-26T20:34:04.883Z,65.53
2018-07-26T20:35:05.091Z,64.17
2018-07-26T20:36:04.925Z,65.43
2018-07-26T20:37:04.850Z,66.78
2018-07-26T20:38:05.153Z,67.27
2018-07-26T20:39:04.919Z,68.49
2018-07-26T20:40:04.865Z,68.11
2018-07-26T20:41:05.152Z,68.79
2018-07-26T20:42:05.124Z,68.79
2018-07-26T20:43:04.868Z,68.98
2018-07-26T20:44:05.125Z,68.88
2018-07-26T20:45:04.876Z,69.75
2018-07-26T20:46:05.170Z,69.53
2018-07-26T20:47:05.139Z,69.14
2018-07-26T20:48:04.901Z,68.66
2018-07-26T20:49:05.155Z,68.56
2018-07-26T20:50:05.154Z,69.04
2018-07-26T20:51:05.177Z,68.37
2018-07-26T20:52:05.152Z,67.69
2018-07-26T20:53:04.908Z,67.88
2018-07-26T20:54:05.370Z,69.24
2018-07-26T20:55:04.926Z,69.43
2018-07-26T20:56:04.946Z,68.56
2018-07-26T20:57:05.177Z,68.95
2018-07-26T20:58:05.183Z,68.85
2018-07-26T20:59:04.943Z,67.69
2018-07-26T21:00:05.185Z,67.88
2018-07-26T21:01:05.274Z,67.4
2018-07-26T21:02:04.935Z,68.37
2018-07-26T21:03:05.190Z,66.72
2018-07-26T21:04:05.205Z,63.92
2018-07-26T21:05:05.196Z,61.82
2018-07-26T21:06:05.214Z,61.3
2018-07-26T21:07:04.947Z,61.53
2018-07-26T21:08:04.944Z,61.63
2018-07-26T21:09:05.258Z,62.98
2018-07-26T21:10:04.952Z,62.5
2018-07-26T21:11:05.312Z,60.66
2018-07-26T21:12:05.228Z,59.89
2018-07-26T21:13:05.222Z,60.47
2018-07-26T21:14:05.224Z,59.79
2018-07-26T21:15:04.975Z,58.14
2018-07-26T21:16:05.337Z,57.28
2018-07-26T21:17:04.981Z,57.28
2018-07-26T21:18:05.282Z,56.6
2018-07-26T21:19:06.055Z,56.98
2018-07-26T21:20:04.997Z,56.79
2018-07-26T21:21:05.272Z,57.08
2018-07-26T21:22:05.264Z,57.66
2018-07-26T21:23:05.263Z,57.95
2018-07-26T21:24:05.321Z,57.66
2018-07-26T21:25:05.009Z,59.59
2018-07-26T21:26:05.275Z,61.15
2018-07-26T21:27:05.277Z,62.11
2018-07-26T21:28:05.278Z,61.82
2018-07-26T21:29:05.302Z,63.95
2018-07-26T21:30:05.029Z,61.53
2018-07-26T21:31:05.363Z,59.98
2018-07-26T21:32:05.301Z,59.11
2018-07-26T21:33:05.295Z,59.21
2018-07-26T21:34:06.106Z,58.92
2018-07-26T21:35:05.340Z,58.53
2018-07-26T21:36:05.092Z,57.56
2018-07-26T21:37:05.316Z,57.46
2018-07-26T21:38:05.061Z,56.28
2018-07-26T21:39:05.320Z,56.5
2018-07-26T21:40:05.325Z,56.37
2018-07-26T21:41:05.363Z,56.7
2018-07-26T21:42:05.346Z,56.95
2018-07-26T21:43:05.334Z,57.63
2018-07-26T21:44:05.085Z,57.44
2018-07-26T21:45:05.346Z,57.37
2018-07-26T21:46:05.388Z,57.24
2018-07-26T21:47:05.364Z,56.95
2018-07-26T21:48:05.099Z,56.86
2018-07-26T21:49:05.117Z,56.57
2018-07-26T21:50:05.372Z,56.57
2018-07-26T21:51:05.385Z,56.47
2018-07-26T21:52:05.124Z,56.76
2018-07-26T21:53:05.116Z,56.57
2018-07-26T21:54:05.389Z,56.67
2018-07-26T21:55:05.125Z,56.67
2018-07-26T21:56:05.190Z,56.57
2018-07-26T21:57:05.133Z,56.76
2018-07-26T21:58:05.145Z,56.76
2018-07-26T21:59:05.405Z,56.95
2018-07-26T22:00:05.402Z,58.31
2018-07-26T22:01:05.428Z,58.5
2018-07-26T22:02:05.408Z,58.5
2018-07-26T22:03:05.418Z,58.21
2018-07-26T22:04:05.425Z,64.5
2018-07-26T22:05:05.171Z,65.08
2018-07-26T22:06:05.473Z,66.14
2018-07-26T22:07:05.172Z,64.11
2018-07-26T22:08:05.170Z,64.27
2018-07-26T22:09:05.440Z,64.85
2018-07-26T22:10:05.179Z,64.37
2018-07-26T22:11:05.505Z,64.85
2018-07-26T22:12:05.442Z,64.56
2018-07-26T22:13:05.450Z,63.69
2018-07-26T22:14:05.480Z,60.69
2018-07-26T22:15:05.233Z,60.11
2018-07-26T22:47:59.529Z,60.57
2018-07-26T22:48:59.787Z,61.25
2018-07-26T22:49:59.528Z,61.54
2018-07-26T22:50:59.767Z,61.25
2018-07-26T22:51:59.786Z,61.83
2018-07-26T22:52:59.523Z,61.54
2018-07-26T22:53:59.776Z,61.25
2018-07-26T22:54:59.786Z,61.34
2018-07-26T22:55:59.521Z,61.34
2018-07-26T22:56:59.536Z,61.34
2018-07-26T22:57:59.523Z,61.54
2018-07-26T22:58:59.785Z,61.34
2018-07-26T22:59:59.533Z,61.73
2018-07-26T23:00:59.785Z,61.73
2018-07-26T23:01:59.786Z,61.73
2018-07-26T23:03:00.349Z,62.21
2018-07-26T23:03:59.796Z,61.92
2018-07-26T23:05:00.062Z,62.37
2018-07-26T23:05:59.805Z,62.28
2018-07-26T23:06:59.790Z,62.18
2018-07-26T23:07:59.798Z,61.7
2018-07-26T23:08:59.551Z,62.47
2018-07-26T23:09:59.546Z,62.57
2018-07-26T23:10:59.811Z,62.37
2018-07-26T23:11:59.805Z,61.7
2018-07-26T23:12:59.831Z,61.51
2018-07-26T23:13:59.807Z,62.08
2018-07-26T23:14:59.814Z,61.89
2018-07-26T23:15:59.724Z,62.37
2018-07-26T23:16:59.842Z,61.99
2018-07-26T23:17:59.837Z,62.28
2018-07-26T23:18:59.828Z,62.66
2018-07-26T23:19:59.825Z,62.28
2018-07-26T23:20:59.831Z,62.47
2018-07-26T23:21:59.838Z,62.28
2018-07-26T23:22:59.840Z,62.86
2018-07-26T23:23:59.846Z,62.76
2018-07-26T23:24:59.860Z,62.47
2018-07-26T23:25:59.856Z,62.95
2018-07-26T23:26:59.851Z,62.86
2018-07-26T23:27:59.866Z,62.86
2018-07-26T23:28:59.855Z,62.76
2018-07-26T23:29:59.859Z,63.05
2018-07-26T23:30:59.869Z,63.05
2018-07-26T23:31:59.606Z,63.24
2018-07-26T23:32:59.867Z,63.34
2018-07-26T23:33:59.614Z,63.34
2018-07-26T23:34:59.615Z,63.05
2018-07-26T23:35:59.888Z,62.86
2018-07-26T23:36:59.635Z,62.86
2018-07-26T23:37:59.880Z,63.05
2018-07-26T23:38:59.893Z,63.02
2018-07-26T23:39:59.893Z,63.05
2018-07-26T23:40:59.898Z,63.63
2018-07-26T23:41:59.640Z,63.73
2018-07-26T23:42:59.921Z,64.08
2018-07-26T23:43:59.937Z,64.21
2018-07-26T23:44:59.910Z,63.79
2018-07-26T23:45:59.914Z,63.5
2018-07-26T23:46:59.664Z,63.98
2018-07-26T23:47:59.915Z,64.18
2018-07-26T23:48:59.924Z,63.89
2018-07-26T23:49:59.663Z,64.08
2018-07-26T23:50:59.662Z,63.98
2018-07-26T23:51:59.926Z,64.18
2018-07-26T23:52:59.928Z,64.08
2018-07-26T23:53:59.934Z,64.28
2018-07-26T23:54:59.934Z,65.05
2018-07-26T23:55:59.710Z,65.34
2018-07-26T23:56:59.938Z,65.43
2018-07-26T23:57:59.948Z,65.63
2018-07-26T23:58:59.708Z,65.14
2018-07-26T23:59:59.691Z,65.24
